createdAt,value
2017-09-02T00:01:57.960Z,12.60
2017-09-02T00:04:24.168Z,12.50
2017-09-02T00:06:50.670Z,12.50
2017-09-02T00:09:16.931Z,12.30
2017-09-02T00:14:16.163Z,12.30
2017-09-02T00:16:42.393Z,12.30
2017-09-02T00:19:08.615Z,12.20
2017-09-02T00:21:35.113Z,12.10
2017-09-02T00:24:01.338Z,12.00
2017-09-02T00:26:27.587Z,11.90
2017-09-02T00:28:54.018Z,11.80
2017-09-02T00:31:20.250Z,11.80
2017-09-02T00:33:46.487Z,11.80
2017-09-02T00:36:12.748Z,11.80
2017-09-02T00:38:38.975Z,11.70
2017-09-02T00:41:05.252Z,11.70
2017-09-02T00:43:31.533Z,11.70
2017-09-02T00:45:57.785Z,11.70
2017-09-02T00:48:24.033Z,11.70
2017-09-02T00:50:50.332Z,11.80
2017-09-02T00:53:16.564Z,11.90
2017-09-02T00:55:42.809Z,12.00
2017-09-02T00:58:09.092Z,12.10
2017-09-02T01:00:35.340Z,12.10
2017-09-02T01:03:01.558Z,12.00
2017-09-02T01:05:27.865Z,12.00
2017-09-02T01:07:54.117Z,12.00
2017-09-02T01:10:20.365Z,12.10
2017-09-02T01:12:46.910Z,12.10
2017-09-02T01:15:13.219Z,12.00
2017-09-02T01:17:39.449Z,12.00
2017-09-02T01:20:05.681Z,12.00
2017-09-02T01:22:31.904Z,12.00
2017-09-02T01:24:58.157Z,12.10
2017-09-02T01:27:24.366Z,12.10
2017-09-02T01:29:50.658Z,12.10
2017-09-02T01:32:16.910Z,12.10
2017-09-02T01:34:43.148Z,12.10
2017-09-02T01:37:09.394Z,12.20
2017-09-02T01:39:35.646Z,12.10
2017-09-02T01:42:01.970Z,12.20
2017-09-02T01:44:28.214Z,12.10
2017-09-02T01:46:54.486Z,12.10
2017-09-02T01:49:20.698Z,12.00
2017-09-02T01:51:46.921Z,12.00
2017-09-02T01:54:13.181Z,11.90
2017-09-02T01:56:39.418Z,11.90
2017-09-02T01:59:05.636Z,11.80
2017-09-02T02:01:32.693Z,11.70
2017-09-02T02:03:58.909Z,11.90
2017-09-02T02:06:25.136Z,11.90
2017-09-02T02:08:51.598Z,11.80
2017-09-02T02:11:17.821Z,11.60
2017-09-02T02:13:44.055Z,11.60
2017-09-02T02:16:10.289Z,11.40
2017-09-02T02:18:36.533Z,11.50
2017-09-02T02:21:02.804Z,11.50
2017-09-02T02:23:29.049Z,11.60
2017-09-02T02:25:55.270Z,11.70
2017-09-02T02:28:21.502Z,11.70
2017-09-02T02:30:47.730Z,11.60
2017-09-02T02:33:14.101Z,11.70
2017-09-02T02:35:40.346Z,11.70
2017-09-02T02:38:06.567Z,11.60
2017-09-02T02:40:32.830Z,11.60
2017-09-02T02:42:59.057Z,11.50
2017-09-02T02:45:25.272Z,11.60
2017-09-02T02:47:51.520Z,11.50
2017-09-02T02:50:17.760Z,11.50
2017-09-02T02:52:44.046Z,11.50
2017-09-02T02:55:10.590Z,11.40
2017-09-02T02:57:36.822Z,11.50
2017-09-02T03:00:03.073Z,11.50
2017-09-02T03:02:29.353Z,11.50
2017-09-02T03:04:55.594Z,11.60
2017-09-02T03:07:21.822Z,11.50
2017-09-02T03:09:48.422Z,11.50
2017-09-02T03:12:14.649Z,11.40
2017-09-02T03:14:40.906Z,11.20
2017-09-02T03:17:07.341Z,11.20
2017-09-02T03:19:33.682Z,11.10
2017-09-02T03:21:59.973Z,11.10
2017-09-02T03:24:26.250Z,11.20
2017-09-02T03:26:52.470Z,11.20
2017-09-02T03:29:18.714Z,11.20
2017-09-02T03:31:44.968Z,11.20
2017-09-02T03:34:11.210Z,11.10
2017-09-02T03:36:37.440Z,11.10
2017-09-02T03:39:03.778Z,11.10
2017-09-02T03:41:30.005Z,11.10
2017-09-02T03:43:56.247Z,11.10
2017-09-02T03:46:22.477Z,11.00
2017-09-02T03:48:48.712Z,10.90
2017-09-02T03:51:15.325Z,10.80
2017-09-02T03:53:41.676Z,10.80
2017-09-02T03:58:40.825Z,10.60
2017-09-02T04:01:07.068Z,10.60
2017-09-02T04:03:33.311Z,10.60
2017-09-02T04:05:59.852Z,10.50
2017-09-02T04:08:26.087Z,10.50
2017-09-02T04:10:52.309Z,10.40
2017-09-02T04:13:18.642Z,10.40
2017-09-02T04:15:44.897Z,10.40
2017-09-02T04:18:11.152Z,10.40
2017-09-02T04:20:37.427Z,10.30
2017-09-02T04:23:03.657Z,10.20
2017-09-02T04:25:29.907Z,10.30
2017-09-02T04:27:56.177Z,10.30
2017-09-02T04:30:22.400Z,10.40
2017-09-02T04:32:48.628Z,10.30
2017-09-02T04:35:14.905Z,10.30
2017-09-02T04:37:41.130Z,10.50
2017-09-02T04:40:07.382Z,10.60
2017-09-02T04:42:33.676Z,10.60
2017-09-02T04:44:59.972Z,10.70
2017-09-02T04:47:26.263Z,10.60
2017-09-02T04:49:53.747Z,10.50
2017-09-02T04:52:20.006Z,10.40
2017-09-02T04:54:46.237Z,10.40
2017-09-02T04:57:12.468Z,10.50
2017-09-02T04:59:38.766Z,10.40
2017-09-02T05:02:05.006Z,10.50
2017-09-02T05:07:04.124Z,10.30
2017-09-02T05:09:30.369Z,10.30
2017-09-02T05:11:56.940Z,10.30
2017-09-02T05:14:23.727Z,10.30
2017-09-02T05:16:50.019Z,10.20
2017-09-02T05:19:16.246Z,10.20
2017-09-02T05:21:42.505Z,10.20
2017-09-02T05:24:08.734Z,10.20
2017-09-02T05:26:34.986Z,10.20
2017-09-02T05:29:01.558Z,10.40
2017-09-02T05:31:27.789Z,10.40
2017-09-02T05:33:54.025Z,10.50
2017-09-02T05:36:20.301Z,10.50
2017-09-02T05:38:46.526Z,10.30
2017-09-02T05:41:12.757Z,10.30
2017-09-02T05:43:39.318Z,10.30
2017-09-02T05:46:05.544Z,10.30
2017-09-02T05:48:31.798Z,10.20
2017-09-02T05:50:58.417Z,10.20
2017-09-02T05:53:24.674Z,10.30
2017-09-02T05:55:50.940Z,10.30
2017-09-02T05:58:17.168Z,10.40
2017-09-02T06:00:43.409Z,10.40
2017-09-02T06:03:09.963Z,10.50
2017-09-02T06:05:36.222Z,10.60
2017-09-02T06:08:02.457Z,10.80
2017-09-02T06:10:28.723Z,10.90
2017-09-02T06:12:54.978Z,11.00
2017-09-02T06:15:21.240Z,11.00
2017-09-02T06:17:47.651Z,11.10
2017-09-02T06:20:13.895Z,11.10
2017-09-02T06:22:40.400Z,11.30
2017-09-02T06:25:06.929Z,11.40
2017-09-02T06:27:33.271Z,11.40
2017-09-02T06:29:59.562Z,11.50
2017-09-02T06:32:25.909Z,11.60
2017-09-02T06:34:52.251Z,11.70
2017-09-02T06:37:18.477Z,11.80
2017-09-02T06:39:44.880Z,11.80
2017-09-02T06:42:11.129Z,11.90
2017-09-02T06:44:37.349Z,11.90
2017-09-02T06:47:03.823Z,12.10
2017-09-02T06:49:30.054Z,12.20
2017-09-02T06:51:56.298Z,12.20
2017-09-02T06:54:22.564Z,12.30
2017-09-02T06:56:48.791Z,12.40
2017-09-02T06:59:15.002Z,12.60
2017-09-02T07:01:41.582Z,12.60
2017-09-02T07:04:07.817Z,12.80
2017-09-02T07:06:34.043Z,12.90
2017-09-02T07:09:00.310Z,13.00
2017-09-02T07:11:26.553Z,13.10
2017-09-02T07:13:52.838Z,13.10
2017-09-02T07:16:19.085Z,13.20
2017-09-02T07:18:45.302Z,13.20
2017-09-02T07:21:11.773Z,13.30
2017-09-02T07:23:38.410Z,13.30
2017-09-02T07:26:04.666Z,13.40
2017-09-02T07:28:30.939Z,13.40
2017-09-02T07:30:57.168Z,13.50
2017-09-02T07:33:23.405Z,13.60
2017-09-02T07:35:49.660Z,13.60
2017-09-02T07:38:16.018Z,13.60
2017-09-02T07:40:42.281Z,13.70
2017-09-02T07:43:08.569Z,13.80
2017-09-02T07:45:34.804Z,13.80
2017-09-02T07:48:01.049Z,13.90
2017-09-02T07:50:27.346Z,13.90
2017-09-02T07:52:53.601Z,14.10
2017-09-02T07:55:19.831Z,14.10
2017-09-02T07:57:46.093Z,14.20
2017-09-02T08:00:12.337Z,14.30
2017-09-02T08:02:38.585Z,14.40
2017-09-02T08:05:04.874Z,14.40
2017-09-02T08:07:31.873Z,14.70
2017-09-02T08:09:58.608Z,14.60
2017-09-02T08:12:25.175Z,14.70
2017-09-02T08:14:51.415Z,14.70
2017-09-02T08:17:17.650Z,14.80
2017-09-02T08:19:44.260Z,14.80
2017-09-02T08:22:10.864Z,14.80
2017-09-02T08:24:37.107Z,14.90
2017-09-02T08:27:03.379Z,15.00
2017-09-02T08:29:29.609Z,15.00
2017-09-02T08:31:56.662Z,15.10
2017-09-02T08:34:22.914Z,15.20
2017-09-02T08:36:49.141Z,15.30
2017-09-02T08:39:15.389Z,15.40
2017-09-02T08:41:41.622Z,15.50
2017-09-02T08:44:07.855Z,15.60
2017-09-02T08:46:34.085Z,15.60
2017-09-02T08:49:00.333Z,15.60
2017-09-02T08:51:26.570Z,15.60
2017-09-02T08:53:52.830Z,15.60
2017-09-02T08:56:19.066Z,15.60
2017-09-02T08:58:45.298Z,15.70
2017-09-02T09:01:11.587Z,15.70
2017-09-02T09:03:37.815Z,15.80
2017-09-02T09:06:04.042Z,15.90
2017-09-02T09:08:31.065Z,15.90
2017-09-02T09:10:57.782Z,15.90
2017-09-02T09:13:24.957Z,15.80
2017-09-02T09:15:52.241Z,15.80
2017-09-02T09:18:18.850Z,15.90
2017-09-02T09:20:45.306Z,16.10
2017-09-02T09:23:13.365Z,16.30
2017-09-02T09:25:39.921Z,16.40
2017-09-02T09:28:06.211Z,16.50
2017-09-02T09:30:33.120Z,16.60
2017-09-02T09:33:00.030Z,16.60
2017-09-02T09:35:26.624Z,16.50
2017-09-02T09:37:53.194Z,16.40
2017-09-02T09:40:19.791Z,16.30
2017-09-02T09:42:46.260Z,16.30
2017-09-02T09:45:13.345Z,16.40
2017-09-02T09:47:40.035Z,16.40
2017-09-02T09:50:07.040Z,16.50
2017-09-02T09:52:34.140Z,16.50
2017-09-02T09:55:01.054Z,16.50
2017-09-02T09:57:28.260Z,16.80
2017-09-02T09:59:55.589Z,16.90
2017-09-02T10:02:22.529Z,17.00
2017-09-02T10:04:49.252Z,17.00
2017-09-02T10:07:16.424Z,17.00
2017-09-02T10:09:43.423Z,16.90
2017-09-02T10:12:10.724Z,16.80
2017-09-02T10:14:37.756Z,16.80
2017-09-02T10:17:05.237Z,17.00
2017-09-02T10:19:32.831Z,17.10
2017-09-02T10:22:00.037Z,17.00
2017-09-02T10:24:27.440Z,16.90
2017-09-02T10:26:55.033Z,17.00
2017-09-02T10:29:21.839Z,17.10
2017-09-02T10:31:48.076Z,17.30
2017-09-02T10:34:14.441Z,17.40
2017-09-02T10:36:41.439Z,17.60
2017-09-02T10:39:07.689Z,17.70
2017-09-02T10:41:34.354Z,17.60
2017-09-02T10:44:00.582Z,17.70
2017-09-02T10:46:27.847Z,17.80
2017-09-02T10:48:54.878Z,17.90
2017-09-02T10:51:21.493Z,18.00
2017-09-02T10:53:47.718Z,18.00
2017-09-02T10:56:14.713Z,17.80
2017-09-02T10:58:41.010Z,17.50
2017-09-02T11:01:07.335Z,17.50
2017-09-02T11:03:33.758Z,17.60
2017-09-02T11:05:59.999Z,17.80
2017-09-02T11:08:26.908Z,18.00
2017-09-02T11:10:53.170Z,18.00
2017-09-02T11:13:19.418Z,18.10
2017-09-02T11:15:45.686Z,18.20
2017-09-02T11:18:11.957Z,18.30
2017-09-02T11:20:38.618Z,18.30
2017-09-02T11:23:04.892Z,18.40
2017-09-02T11:25:31.126Z,18.40
2017-09-02T11:27:57.345Z,18.40
2017-09-02T11:30:23.602Z,18.50
2017-09-02T11:32:49.838Z,18.40
2017-09-02T11:35:16.089Z,18.50
2017-09-02T11:37:42.423Z,18.60
2017-09-02T11:40:08.646Z,18.50
2017-09-02T11:42:34.878Z,18.40
2017-09-02T11:45:01.140Z,18.30
2017-09-02T11:47:27.365Z,18.30
2017-09-02T11:49:53.683Z,18.30
2017-09-02T11:52:19.922Z,18.50
2017-09-02T11:54:46.257Z,18.60
2017-09-02T11:57:12.477Z,18.80
2017-09-02T11:59:38.705Z,18.80
2017-09-02T12:02:04.971Z,18.80
2017-09-02T12:04:31.203Z,18.70
2017-09-02T12:06:57.430Z,18.70
2017-09-02T12:09:23.666Z,18.80
2017-09-02T12:11:50.857Z,19.10
2017-09-02T12:14:17.152Z,19.30
2017-09-02T12:16:43.383Z,19.70
2017-09-02T12:19:09.945Z,20.20
2017-09-02T12:21:36.193Z,20.60
2017-09-02T12:24:02.433Z,21.00
2017-09-02T12:26:28.940Z,21.10
2017-09-02T12:28:55.763Z,21.30
2017-09-02T12:31:22.020Z,21.50
2017-09-02T12:33:48.262Z,22.00
2017-09-02T12:36:14.486Z,22.40
2017-09-02T12:38:40.718Z,23.00
2017-09-02T12:41:06.954Z,23.30
2017-09-02T12:43:33.183Z,23.30
2017-09-02T12:45:59.454Z,23.30
2017-09-02T12:48:25.694Z,23.70
2017-09-02T12:50:51.934Z,24.00
2017-09-02T12:53:18.205Z,23.80
2017-09-02T12:55:44.435Z,24.20
2017-09-02T12:58:10.651Z,24.30
2017-09-02T13:00:36.913Z,23.90
2017-09-02T13:03:03.152Z,24.00
2017-09-02T13:05:29.402Z,24.20
2017-09-02T13:07:55.853Z,24.20
2017-09-02T13:10:22.102Z,24.10
2017-09-02T13:12:48.706Z,24.50
2017-09-02T13:15:15.219Z,24.60
2017-09-02T13:17:41.448Z,25.00
2017-09-02T13:20:07.693Z,24.80
2017-09-02T13:22:33.949Z,24.90
2017-09-02T13:25:00.166Z,25.00
2017-09-02T13:27:26.376Z,24.90
2017-09-02T13:29:52.597Z,24.60
2017-09-02T13:32:19.205Z,24.90
2017-09-02T13:34:45.452Z,24.80
2017-09-02T13:37:11.674Z,25.50
2017-09-02T13:39:37.906Z,25.50
2017-09-02T13:42:04.170Z,25.60
2017-09-02T13:44:30.382Z,25.50
2017-09-02T13:46:56.610Z,25.50
2017-09-02T13:49:22.880Z,25.30
2017-09-02T13:51:49.098Z,24.70
2017-09-02T13:54:15.313Z,24.60
2017-09-02T13:56:41.584Z,24.50
2017-09-02T13:59:07.822Z,24.90
2017-09-02T14:01:34.034Z,24.30
2017-09-02T14:04:00.282Z,23.70
2017-09-02T14:06:26.517Z,22.70
2017-09-02T14:08:52.763Z,22.00
2017-09-02T14:11:19.083Z,21.40
2017-09-02T14:13:45.337Z,21.00
2017-09-02T14:16:11.579Z,20.90
2017-09-02T14:18:37.833Z,21.10
2017-09-02T14:21:04.060Z,21.20
2017-09-02T14:23:30.285Z,21.80
2017-09-02T14:25:56.546Z,22.50
2017-09-02T14:28:22.772Z,22.60
2017-09-02T14:30:49.000Z,22.40
2017-09-02T14:33:15.262Z,22.20
2017-09-02T14:35:41.485Z,22.00
2017-09-02T14:38:07.720Z,21.70
2017-09-02T14:40:34.045Z,21.30
2017-09-02T14:43:00.260Z,21.30
2017-09-02T14:45:26.491Z,21.40
2017-09-02T14:47:52.834Z,21.10
2017-09-02T14:50:19.057Z,20.80
2017-09-02T14:52:45.290Z,20.40
2017-09-02T14:55:11.557Z,20.20
2017-09-02T14:57:37.808Z,20.20
2017-09-02T15:00:04.064Z,20.10
2017-09-02T15:02:30.293Z,20.00
2017-09-02T15:04:56.526Z,19.80
2017-09-02T15:07:22.774Z,19.60
2017-09-02T15:09:49.001Z,19.40
2017-09-02T15:12:15.222Z,19.20
2017-09-02T15:14:41.454Z,19.10
2017-09-02T15:17:08.267Z,18.90
2017-09-02T15:19:34.481Z,19.00
2017-09-02T15:22:00.717Z,19.20
2017-09-02T15:24:27.021Z,19.50
2017-09-02T15:26:53.329Z,19.60
2017-09-02T15:29:19.559Z,19.60
2017-09-02T15:31:45.776Z,19.50
2017-09-02T15:34:12.001Z,19.40
2017-09-02T15:36:38.299Z,19.20
2017-09-02T15:39:04.561Z,19.20
2017-09-02T15:41:30.785Z,19.20
2017-09-02T15:43:57.049Z,19.00
2017-09-02T15:46:23.285Z,18.80
2017-09-02T15:48:49.499Z,18.60
2017-09-02T15:51:15.790Z,18.40
2017-09-02T15:53:42.015Z,18.40
2017-09-02T15:56:08.254Z,18.40
2017-09-02T15:58:34.517Z,18.30
2017-09-02T16:01:00.754Z,18.10
2017-09-02T16:03:26.974Z,18.10
2017-09-02T16:05:53.234Z,18.10
2017-09-02T16:08:19.458Z,18.00
2017-09-02T16:10:45.713Z,18.00
2017-09-02T16:13:11.965Z,17.90
2017-09-02T16:15:38.195Z,17.80
2017-09-02T16:18:04.432Z,17.60
2017-09-02T16:20:30.653Z,17.60
2017-09-02T16:22:56.875Z,17.50
2017-09-02T16:25:23.109Z,17.40
2017-09-02T16:27:49.464Z,17.20
2017-09-02T16:30:15.684Z,17.20
2017-09-02T16:32:41.910Z,17.10
2017-09-02T16:35:08.160Z,17.10
2017-09-02T16:37:34.365Z,17.10
2017-09-02T16:40:00.822Z,17.10
2017-09-02T16:42:27.065Z,17.10
2017-09-02T16:44:53.299Z,17.00
2017-09-02T16:47:20.129Z,16.90
2017-09-02T16:49:46.451Z,16.90
2017-09-02T16:52:12.702Z,16.80
2017-09-02T16:54:39.093Z,16.80
2017-09-02T16:57:05.785Z,16.80
2017-09-02T16:59:32.051Z,16.80
2017-09-02T17:01:58.570Z,16.70
2017-09-02T17:04:24.806Z,16.60
2017-09-02T17:06:51.052Z,16.60
2017-09-02T17:09:17.322Z,16.50
2017-09-02T17:11:43.566Z,16.40
2017-09-02T17:14:09.825Z,16.40
2017-09-02T17:16:36.175Z,16.40
2017-09-02T17:19:02.409Z,16.30
2017-09-02T17:21:28.669Z,16.20
2017-09-02T17:23:54.964Z,16.10
2017-09-02T17:26:21.211Z,16.20
2017-09-02T17:28:47.464Z,16.20
2017-09-02T17:31:13.730Z,16.10
2017-09-02T17:33:39.960Z,16.00
2017-09-02T17:36:06.215Z,16.00
2017-09-02T17:38:32.900Z,15.90
2017-09-02T17:40:59.520Z,15.90
2017-09-02T17:43:25.771Z,15.80
2017-09-02T17:45:52.032Z,15.80
2017-09-02T17:48:18.291Z,15.60
2017-09-02T17:50:44.509Z,15.70
2017-09-02T17:53:11.113Z,15.70
2017-09-02T17:55:37.339Z,15.70
2017-09-02T17:58:04.433Z,15.60
2017-09-02T18:00:30.668Z,15.50
2017-09-02T18:02:56.895Z,15.50
2017-09-02T18:05:23.448Z,15.40
2017-09-02T18:07:49.801Z,15.40
2017-09-02T18:10:16.039Z,15.40
2017-09-02T18:12:42.291Z,15.40
2017-09-02T18:15:08.504Z,15.30
2017-09-02T18:17:34.734Z,15.30
2017-09-02T18:20:00.981Z,15.30
2017-09-02T18:22:27.217Z,15.10
2017-09-02T18:24:53.576Z,15.10
2017-09-02T18:27:19.948Z,15.00
2017-09-02T18:29:46.183Z,15.00
2017-09-02T18:32:12.413Z,14.80
2017-09-02T18:34:38.694Z,14.70
2017-09-02T18:37:04.921Z,14.70
2017-09-02T18:39:31.145Z,14.70
2017-09-02T18:41:57.501Z,14.60
2017-09-02T18:44:23.750Z,14.70
2017-09-02T18:46:49.987Z,14.70
2017-09-02T18:49:16.255Z,14.50
2017-09-02T18:51:42.510Z,14.40
2017-09-02T18:54:08.765Z,14.40
2017-09-02T18:56:35.035Z,14.30
2017-09-02T18:59:01.269Z,14.20
2017-09-02T19:01:27.495Z,14.00
2017-09-02T19:03:53.749Z,13.80
2017-09-02T19:06:19.977Z,13.80
2017-09-02T19:08:46.221Z,13.80
2017-09-02T19:11:12.509Z,13.80
2017-09-02T19:13:38.734Z,13.90
2017-09-02T19:16:04.977Z,13.90
2017-09-02T19:18:31.237Z,13.90
2017-09-02T19:20:57.478Z,13.90
2017-09-02T19:23:23.725Z,14.00
2017-09-02T19:25:50.258Z,14.00
2017-09-02T19:28:16.486Z,13.90
2017-09-02T19:30:42.708Z,13.70
2017-09-02T19:33:09.049Z,13.70
2017-09-02T19:35:35.316Z,13.70
2017-09-02T19:38:01.534Z,13.70
2017-09-02T19:40:27.782Z,13.60
2017-09-02T19:42:54.189Z,13.50
2017-09-02T19:45:20.422Z,13.40
2017-09-02T19:47:46.665Z,13.40
2017-09-02T19:50:12.902Z,13.30
2017-09-02T19:52:39.144Z,13.30
2017-09-02T19:55:05.358Z,13.40
2017-09-02T19:57:31.622Z,13.40
2017-09-02T19:59:57.846Z,13.30
2017-09-02T20:02:24.097Z,13.30
2017-09-02T20:04:50.524Z,13.20
2017-09-02T20:07:16.740Z,13.00
2017-09-02T20:09:42.985Z,13.00
2017-09-02T20:12:09.296Z,13.20
2017-09-02T20:14:35.538Z,13.20
2017-09-02T20:17:01.774Z,13.20
2017-09-02T20:19:28.102Z,13.30
2017-09-02T20:21:54.356Z,13.20
2017-09-02T20:24:20.573Z,13.10
2017-09-02T20:26:46.837Z,13.00
2017-09-02T20:29:13.218Z,13.10
2017-09-02T20:31:39.532Z,13.00
2017-09-02T20:34:05.882Z,13.00
2017-09-02T20:36:32.110Z,12.90
2017-09-02T20:38:58.330Z,12.80
2017-09-02T20:41:24.579Z,12.60
2017-09-02T20:43:50.820Z,12.60
2017-09-02T20:46:17.040Z,12.60
2017-09-02T20:48:43.446Z,12.70
2017-09-02T20:51:10.143Z,12.60
2017-09-02T20:53:36.387Z,12.60
2017-09-02T20:56:02.917Z,12.60
2017-09-02T20:58:29.146Z,12.50
2017-09-02T21:00:55.353Z,12.50
2017-09-02T21:03:22.376Z,12.50
2017-09-02T21:05:48.862Z,12.50
2017-09-02T21:08:16.171Z,12.50
2017-09-02T21:10:42.501Z,12.50
2017-09-02T21:13:08.767Z,12.50
2017-09-02T21:15:35.031Z,12.40
2017-09-02T21:18:01.588Z,12.30
2017-09-02T21:20:27.839Z,12.40
2017-09-02T21:22:54.067Z,12.40
2017-09-02T21:25:20.336Z,12.40
2017-09-02T21:27:46.566Z,12.30
2017-09-02T21:30:12.788Z,12.20
2017-09-02T21:32:39.025Z,12.00
2017-09-02T21:35:05.467Z,12.10
2017-09-02T21:37:31.705Z,12.10
2017-09-02T21:39:57.939Z,12.20
2017-09-02T21:42:24.338Z,12.10
2017-09-02T21:44:50.564Z,12.10
2017-09-02T21:47:16.777Z,12.20
2017-09-02T21:49:43.247Z,12.10
2017-09-02T21:52:09.469Z,12.00
2017-09-02T21:54:35.718Z,12.00
2017-09-02T21:57:01.985Z,12.00
2017-09-02T21:59:28.290Z,11.90
2017-09-02T22:01:54.517Z,12.10
2017-09-02T22:04:21.614Z,12.30
2017-09-02T22:06:48.209Z,12.20
2017-09-02T22:09:14.419Z,12.10
2017-09-02T22:11:41.761Z,12.00
2017-09-02T22:14:08.450Z,12.10
2017-09-02T22:16:34.714Z,12.00
2017-09-02T22:19:00.951Z,12.10
2017-09-02T22:21:27.201Z,12.00
2017-09-02T22:23:53.425Z,11.90
2017-09-02T22:26:19.677Z,11.80
2017-09-02T22:28:45.898Z,11.70
2017-09-02T22:31:12.118Z,11.70
2017-09-02T22:33:38.572Z,11.80
2017-09-02T22:36:04.880Z,11.70
2017-09-02T22:38:31.099Z,11.60
2017-09-02T22:40:57.470Z,11.50
2017-09-02T22:43:23.815Z,11.40
2017-09-02T22:45:50.038Z,11.40
2017-09-02T22:48:16.707Z,11.40
2017-09-02T22:50:43.532Z,11.40
2017-09-02T22:53:10.316Z,11.40
2017-09-02T22:55:37.203Z,11.40
2017-09-02T22:58:03.506Z,11.40
2017-09-02T23:00:29.760Z,11.20
2017-09-02T23:02:57.151Z,11.30
2017-09-02T23:05:23.470Z,11.30
2017-09-02T23:07:49.700Z,11.30
2017-09-02T23:10:16.953Z,11.30
2017-09-02T23:12:44.068Z,11.30
2017-09-02T23:15:10.358Z,11.20
2017-09-02T23:17:37.619Z,11.30
2017-09-02T23:20:04.375Z,11.30
2017-09-02T23:22:30.991Z,11.20
2017-09-02T23:24:57.313Z,11.10
2017-09-02T23:27:23.617Z,11.10
2017-09-02T23:29:50.647Z,11.00
2017-09-02T23:32:17.501Z,11.00
2017-09-02T23:34:44.252Z,11.00
2017-09-02T23:37:11.595Z,10.90
2017-09-02T23:39:38.665Z,10.90
2017-09-02T23:42:05.218Z,10.80
2017-09-02T23:44:31.985Z,10.80
2017-09-02T23:46:58.467Z,10.90
2017-09-02T23:49:24.690Z,10.80
2017-09-02T23:51:50.917Z,10.90
2017-09-02T23:54:17.206Z,10.90
2017-09-02T23:56:43.449Z,11.00
2017-09-02T23:59:11.420Z,10.90
